Terminal Aerodrome Forecast
Issued by NWS

Home | Current Version | Previous Version | Text Only | Print | Product List | Glossary On
Versions: 1 2 3 4 5 6 7 8 9 10 11 12
073
FTUS43 KIND 270520
TAFLAF
TAF
KLAF 270520Z 2706/2806 18011G19KT P6SM SHRA VCTS BKN060CB OVC090
     FM270800 20010KT 6SM SHRA BKN035 OVC045
     FM271200 22014KT 4SM BR VCSH BKN010
     FM271300 23015KT P6SM VCSH OVC010
     FM272200 25013KT P6SM BKN035
      AMD LTD TO CLD VIS AND WIND TIL 271300=

USA.gov is the U.S. government's official web portal to all federal, state and local government web resources and services.